Time;durP1;ratioP1;P1;durP2;ratioP2;P2;SDS_P1;SDS_P2;PMS_P1;PMS_P2;Temp;Humidity;BMP_temperature;BMP_pressure;BME280_temperature;BME280_humidity;BME280_pressure;Samples;Min_cycle;Max_cycle;Signal;HPM_P1;HPM_P2
2022/12/19 00:00:33;;;;;;;76.27;28.23;;;;;;;-0.33;100.00;101753.94;6182384;23;20233;-90
2022/12/19 00:03:01;;;;;;;98.28;37.80;;;;;;;-0.26;100.00;101730.41;6183117;23;19997;-90
2022/12/19 00:05:29;;;;;;;77.10;25.40;;;;;;;-0.31;100.00;101711.63;6181432;23;20071;-90
2022/12/19 00:07:54;;;;;;;75.70;25.63;;;;;;;-0.22;100.00;101734.38;6183402;23;20089;-89
2022/12/19 00:10:19;;;;;;;80.63;26.50;;;;;;;-0.24;100.00;101709.16;6183181;23;20021;-89
2022/12/19 00:12:45;;;;;;;73.63;26.40;;;;;;;-0.23;100.00;101716.06;6183706;23;20096;-90
2022/12/19 00:15:10;;;;;;;74.37;25.97;;;;;;;-0.19;100.00;101715.59;6183323;23;20377;-90
2022/12/19 00:17:35;;;;;;;74.97;25.43;;;;;;;-0.21;100.00;101717.56;6182993;23;20040;-90
2022/12/19 00:20:00;;;;;;;75.78;26.63;;;;;;;-0.20;100.00;101702.59;6184649;23;20442;-89
2022/12/19 00:22:26;;;;;;;81.50;28.47;;;;;;;-0.24;100.00;101702.09;6187022;23;20005;-89
2022/12/19 00:24:51;;;;;;;68.87;24.63;;;;;;;-0.21;100.00;101714.09;6185216;23;20097;-89
2022/12/19 00:27:19;;;;;;;94.40;34.33;;;;;;;-0.25;100.00;101692.53;6184870;23;20001;-90
2022/12/19 00:29:44;;;;;;;64.22;23.27;;;;;;;-0.23;100.00;101701.09;6181836;23;20005;-89
2022/12/19 00:32:09;;;;;;;78.17;26.83;;;;;;;-0.21;100.00;101693.03;6182548;23;20100;-88
2022/12/19 00:34:34;;;;;;;86.20;30.37;;;;;;;-0.22;100.00;101689.59;6182066;23;20001;-90
2022/12/19 00:37:00;;;;;;;81.00;28.30;;;;;;;-0.18;100.00;101690.88;6181907;23;20008;-88
2022/12/19 00:39:25;;;;;;;92.47;32.30;;;;;;;-0.16;100.00;101688.91;6182084;23;20027;-89
2022/12/19 00:41:50;;;;;;;85.57;30.30;;;;;;;-0.14;100.00;101701.09;6181601;23;20249;-89
2022/12/19 00:44:16;;;;;;;93.33;30.30;;;;;;;-0.12;100.00;101683.31;6182828;23;20084;-89
2022/12/19 00:46:42;;;;;;;89.50;31.17;;;;;;;-0.11;100.00;101671.78;6182658;23;20005;-88
2022/12/19 00:49:07;;;;;;;92.63;35.90;;;;;;;-0.05;100.00;101679.03;6183410;23;20009;-88
2022/12/19 00:51:35;;;;;;;95.00;36.17;;;;;;;-0.04;100.00;101664.88;6181750;23;20009;-88
2022/12/19 00:54:01;;;;;;;86.00;29.87;;;;;;;0.03;100.00;101675.56;6182204;23;20251;-89
2022/12/19 00:56:30;;;;;;;86.18;30.98;;;;;;;0.05;100.00;101677.03;6156594;23;20009;-89
2022/12/19 00:58:56;;;;;;;90.00;33.78;;;;;;;0.07;100.00;101667.16;6182162;23;20325;-88
2022/12/19 01:01:25;;;;;;;75.22;27.13;;;;;;;0.06;100.00;101644.41;6182216;23;20005;-89
2022/12/19 01:03:53;;;;;;;86.97;33.00;;;;;;;0.14;100.00;101639.16;6181488;23;20496;-89
2022/12/19 01:06:18;;;;;;;79.22;29.23;;;;;;;0.19;100.00;101643.91;6182744;23;20425;-89
2022/12/19 01:08:44;;;;;;;80.50;29.42;;;;;;;0.20;100.00;101642.09;6181893;23;20084;-89
2022/12/19 01:11:10;;;;;;;74.37;26.77;;;;;;;0.22;100.00;101654.13;6181918;23;20004;-89
2022/12/19 01:13:38;;;;;;;69.03;26.65;;;;;;;0.22;100.00;101654.13;6182026;23;20040;-89
2022/12/19 01:16:09;;;;;;;69.10;26.10;;;;;;;0.25;100.00;101648.50;6182230;23;20005;-89
2022/12/19 01:18:35;;;;;;;73.43;28.60;;;;;;;0.25;100.00;101645.03;6181865;23;20001;-90
2022/12/19 01:21:21;;;;;;;77.65;30.90;;;;;;;0.27;100.00;101645.69;6181363;23;20005;-90
2022/12/19 01:23:48;;;;;;;65.50;24.08;;;;;;;0.27;100.00;101643.88;6182150;23;20004;-90
2022/12/19 01:26:13;;;;;;;64.67;25.80;;;;;;;0.28;100.00;101642.06;6155604;23;20492;-90
2022/12/19 01:28:38;;;;;;;80.63;32.40;;;;;;;0.27;100.00;101632.53;6182116;23;20236;-89
2022/12/19 01:31:05;;;;;;;80.93;32.10;;;;;;;0.26;100.00;101628.22;6181269;23;20012;-89
2022/12/19 01:33:30;;;;;;;74.60;30.35;;;;;;;0.26;100.00;101622.97;6181813;23;20422;-89
2022/12/19 01:35:56;;;;;;;77.70;28.23;;;;;;;0.26;100.00;101623.78;6182022;23;20013;-89
2022/12/19 01:38:21;;;;;;;68.00;24.10;;;;;;;0.26;100.00;101617.69;6181989;23;20008;-90
2022/12/19 01:40:55;;;;;;;77.25;30.20;;;;;;;0.23;100.00;101629.41;6180869;23;20001;-90
2022/12/19 01:43:22;;;;;;;65.47;24.65;;;;;;;0.26;100.00;101628.22;6183505;23;20008;-87
2022/12/19 01:45:54;;;;;;;74.40;27.90;;;;;;;0.27;100.00;101627.25;6184149;23;20012;-88
2022/12/19 01:48:22;;;;;;;77.50;29.80;;;;;;;0.26;100.00;101617.69;6183944;23;20433;-89
2022/12/19 01:50:58;;;;;;;73.53;28.77;;;;;;;0.29;100.00;101617.34;6183457;23;20244;-88
2022/12/19 01:53:27;;;;;;;72.68;30.42;;;;;;;0.30;100.00;101619.00;6183874;23;20445;-88
2022/12/19 01:55:54;;;;;;;60.15;22.67;;;;;;;0.30;100.00;101629.53;6183389;23;20009;-88
2022/12/19 01:58:19;;;;;;;69.32;25.50;;;;;;;0.28;100.00;101611.25;6183787;23;20017;-89
2022/12/19 02:00:45;;;;;;;64.57;23.13;;;;;;;0.32;100.00;101611.75;6183167;23;20036;-89
2022/12/19 02:03:34;;;;;;;77.97;30.60;;;;;;;0.33;100.00;101621.31;6183908;23;20035;-89
2022/12/19 02:06:01;;;;;;;66.35;23.67;;;;;;;0.32;100.00;101609.09;6152967;23;20024;-89
2022/12/19 02:08:27;;;;;;;90.13;32.30;;;;;;;0.34;100.00;101603.66;6154308;23;20084;-89
2022/12/19 02:11:14;;;;;;;86.43;31.97;;;;;;;0.35;100.00;101606.13;6153772;23;20245;-88
2022/12/19 02:13:40;;;;;;;78.43;30.15;;;;;;;0.38;100.00;101602.31;6155652;23;20009;-88
2022/12/19 02:16:23;;;;;;;78.20;28.70;;;;;;;0.37;100.00;101590.94;6155520;23;20027;-90
2022/12/19 02:18:59;;;;;;;77.70;27.45;;;;;;;0.40;100.00;101587.97;6155639;23;20002;-88
2022/12/19 02:21:43;;;;;;;94.05;33.28;;;;;;;0.43;100.00;101579.72;6155743;23;20005;-90
2022/12/19 02:24:24;;;;;;;81.97;26.50;;;;;;;0.45;100.00;101567.19;6154496;23;20018;-89
2022/12/19 02:27:25;;;;;;;81.67;28.27;;;;;;;0.48;100.00;101583.66;6154339;23;20303;-89
2022/12/19 02:30:03;;;;;;;80.35;28.23;;;;;;;0.50;100.00;101571.13;6153182;23;20076;-89
2022/12/19 02:32:41;;;;;;;85.90;30.05;;;;;;;0.54;100.00;101562.69;6154087;23;20326;-89
2022/12/19 02:35:27;;;;;;;88.40;28.48;;;;;;;0.57;100.00;101562.34;6153908;23;20009;-89
2022/12/19 02:38:16;;;;;;;93.97;32.67;;;;;;;0.63;100.00;101560.84;6154107;23;20010;-90
2022/12/19 02:40:50;;;;;;;81.15;26.13;;;;;;;0.66;100.00;101562.28;6152490;23;20422;-89
2022/12/19 02:43:17;;;;;;;91.67;30.37;;;;;;;0.72;100.00;101561.59;6154001;23;20009;-89
2022/12/19 02:45:44;;;;;;;84.77;25.70;;;;;;;0.75;100.00;101551.50;6153686;23;20758;-90
2022/12/19 02:48:11;;;;;;;82.65;27.83;;;;;;;0.81;100.00;101549.19;6154046;23;20032;-90
2022/12/19 02:50:40;;;;;;;88.78;28.23;;;;;;;0.84;100.00;101543.56;6153389;23;20012;-90
2022/12/19 02:53:08;;;;;;;83.57;26.90;;;;;;;0.86;100.00;101529.19;6152941;23;20009;-90
2022/12/19 02:55:43;;;;;;;84.18;28.40;;;;;;;0.88;100.00;101537.75;6153860;23;20088;-90
2022/12/19 02:58:33;;;;;;;84.20;26.45;;;;;;;0.93;100.00;101528.50;6153874;23;20012;-90
2022/12/19 03:01:15;;;;;;;78.22;24.27;;;;;;;0.99;100.00;101520.69;6152661;23;20012;-90
2022/12/19 03:03:57;;;;;;;90.07;30.60;;;;;;;1.01;100.00;101518.69;6159190;23;20017;-90
2022/12/19 03:06:41;;;;;;;90.33;31.20;;;;;;;1.05;100.00;101519.16;6183490;23;20228;-89
2022/12/19 03:09:15;;;;;;;85.68;29.75;;;;;;;1.06;100.00;101526.06;6156620;23;20009;-90
2022/12/19 03:11:41;;;;;;;78.20;25.85;;;;;;;1.08;100.00;101521.44;6182853;23;20012;-90
2022/12/19 03:14:14;;;;;;;89.10;26.67;;;;;;;1.09;100.00;101519.63;6183246;23;20080;-90
2022/12/19 03:16:40;;;;;;;75.15;22.77;;;;;;;1.11;100.00;101521.09;6183131;23;20036;-89
2022/12/19 03:19:12;;;;;;;83.40;24.53;;;;;;;1.15;100.00;101525.03;6183691;23;20326;-90
2022/12/19 03:21:43;;;;;;;90.07;28.48;;;;;;;1.21;100.00;101520.84;6182054;23;20012;-89
2022/12/19 03:24:11;;;;;;;84.07;24.48;;;;;;;1.28;100.00;101523.59;6182282;23;20001;-89
2022/12/19 03:26:55;;;;;;;85.57;25.90;;;;;;;1.29;100.00;101526.03;6183244;23;20036;-90
2022/12/19 03:29:35;;;;;;;92.68;26.80;;;;;;;1.38;100.00;101520.69;6183151;23;20480;-89
2022/12/19 03:32:04;;;;;;;96.43;29.25;;;;;;;1.45;100.00;101511.06;6182533;23;20005;-90
2022/12/19 03:34:55;;;;;;;80.97;23.63;;;;;;;1.46;100.00;101502.16;6183473;23;20321;-90
2022/12/19 03:37:24;;;;;;;123.47;38.07;;;;;;;1.61;100.00;101510.91;6183199;23;20689;-88
2022/12/19 03:39:54;;;;;;;80.65;24.10;;;;;;;1.60;100.00;101509.25;6181956;23;20337;-89
2022/12/19 03:45:09;;;;;;;84.93;23.45;;;;;;;1.71;100.00;101499.22;6161815;23;20019;-89
2022/12/19 03:47:40;;;;;;;89.78;25.73;;;;;;;1.78;100.00;101500.16;6182275;23;20043;-90
2022/12/19 03:50:06;;;;;;;74.57;21.95;;;;;;;1.83;100.00;101495.13;6182347;23;20008;-89
2022/12/19 03:52:44;;;;;;;90.30;26.93;;;;;;;1.89;100.00;101502.31;6183201;23;20012;-89
2022/12/19 03:55:17;;;;;;;89.47;24.05;;;;;;;1.93;100.00;101490.38;6182397;23;20306;-89
2022/12/19 03:57:51;;;;;;;89.38;25.90;;;;;;;2.02;100.00;101490.28;6182492;23;20012;-89
2022/12/19 04:00:17;;;;;;;74.32;22.27;;;;;;;2.15;100.00;101494.91;6182577;23;20005;-88
2022/12/19 04:02:48;;;;;;;67.60;20.05;;;;;;;2.16;100.00;101496.56;6181354;23;20044;-89
2022/12/19 04:05:22;;;;;;;82.65;26.80;;;;;;;2.29;100.00;101502.00;6156257;23;20083;-88
2022/12/19 04:07:51;;;;;;;90.37;27.07;;;;;;;2.39;100.00;101488.47;6182207;23;20107;-89
2022/12/19 04:10:21;;;;;;;77.55;20.10;;;;;;;2.49;100.00;101498.75;6182512;23;20576;-89
2022/12/19 04:12:55;;;;;;;68.57;19.90;;;;;;;2.53;100.00;101492.91;6182369;23;20008;-89
2022/12/19 04:15:31;;;;;;;71.70;18.95;;;;;;;2.66;100.00;101483.47;6182722;23;20001;-89
2022/12/19 04:17:59;;;;;;;68.03;19.08;;;;;;;2.66;100.00;101478.19;6182348;23;20032;-90
2022/12/19 04:20:26;;;;;;;86.70;25.25;;;;;;;2.86;100.00;101488.94;6181904;23;20051;-89
2022/12/19 04:23:00;;;;;;;71.15;18.88;;;;;;;2.88;100.00;101481.63;6182371;23;20001;-89
2022/12/19 04:25:30;;;;;;;61.80;16.63;;;;;;;2.91;100.00;101483.91;6182653;23;20009;-89
2022/12/19 04:28:07;;;;;;;65.80;17.47;;;;;;;3.00;100.00;101484.59;6182821;23;20236;-89
2022/12/19 04:30:33;;;;;;;55.00;17.02;;;;;;;3.04;100.00;101477.91;6182113;23;20013;-89
2022/12/19 04:32:59;;;;;;;57.20;18.25;;;;;;;3.09;100.00;101479.97;6182292;23;20076;-89
2022/12/19 04:35:25;;;;;;;62.97;18.17;;;;;;;3.16;100.00;101481.66;6182567;23;20036;-89
2022/12/19 04:37:50;;;;;;;58.20;18.73;;;;;;;3.22;100.00;101476.63;6182090;23;20354;-89
2022/12/19 04:40:16;;;;;;;64.32;20.83;;;;;;;3.30;100.00;101466.69;6182221;23;20009;-89
2022/12/19 04:42:41;;;;;;;59.50;17.97;;;;;;;3.35;100.00;101474.03;6182165;23;20025;-89
2022/12/19 04:45:07;;;;;;;55.23;17.50;;;;;;;3.32;100.00;101469.97;6182372;23;20001;-89
2022/12/19 04:47:32;;;;;;;60.78;16.45;;;;;;;3.34;100.00;101472.41;6155865;23;20012;-89
2022/12/19 04:50:00;;;;;;;50.17;16.67;;;;;;;3.37;100.00;101461.44;6182018;23;20032;-89
2022/12/19 04:52:25;;;;;;;63.58;20.98;;;;;;;3.43;100.00;101463.31;6156628;23;20009;-89
2022/12/19 04:54:51;;;;;;;50.30;14.47;;;;;;;3.45;100.00;101463.09;6182318;23;20295;-89
2022/12/19 04:57:16;;;;;;;58.03;16.70;;;;;;;3.51;100.00;101461.50;6182823;23;20092;-90
2022/12/19 04:59:57;;;;;;;;;;;;;;;;;;;;;
2022/12/19 05:02:23;;;;;;;49.70;15.23;;;;;;;3.59;100.00;101464.00;6182537;23;20052;-91
2022/12/19 05:04:49;;;;;;;57.15;16.77;;;;;;;3.60;100.00;101455.03;6181928;23;20044;-91
2022/12/19 05:07:15;;;;;;;48.37;14.77;;;;;;;3.66;100.00;101470.16;6182535;23;20084;-90
2022/12/19 05:09:40;;;;;;;52.47;16.52;;;;;;;3.59;100.00;101454.22;6154978;23;20488;-91
2022/12/19 05:12:06;;;;;;;48.27;15.73;;;;;;;3.73;100.00;101459.59;6182879;23;20092;-92
2022/12/19 05:14:32;;;;;;;47.53;14.75;;;;;;;3.75;100.00;101461.03;6183056;23;20005;-92
2022/12/19 05:16:57;;;;;;;46.70;14.97;;;;;;;3.76;100.00;101448.59;6186978;23;20108;-91
2022/12/19 05:19:23;;;;;;;50.53;16.47;;;;;;;3.85;100.00;101443.94;6182724;23;20247;-91
2022/12/19 05:21:48;;;;;;;41.60;14.00;;;;;;;3.85;100.00;101457.19;6181227;23;20435;-91
2022/12/19 05:24:14;;;;;;;43.03;15.07;;;;;;;3.90;100.00;101460.06;6182700;23;20092;-91
2022/12/19 05:26:40;;;;;;;52.90;15.70;;;;;;;3.91;100.00;101461.72;6155452;23;20001;-91
2022/12/19 05:29:06;;;;;;;44.50;14.03;;;;;;;3.89;100.00;101453.13;6182499;23;20055;-91
2022/12/19 05:31:31;;;;;;;48.42;15.45;;;;;;;3.91;100.00;101444.00;6181913;23;20005;-91
2022/12/19 05:33:56;;;;;;;46.15;13.75;;;;;;;3.90;100.00;101455.59;6181818;23;20116;-91
2022/12/19 05:36:22;;;;;;;42.97;13.97;;;;;;;3.95;100.00;101449.72;6182844;23;20004;-91
2022/12/19 05:38:50;;;;;;;40.63;14.53;;;;;;;3.99;100.00;101443.00;6181652;23;20001;-91
2022/12/19 05:41:20;;;;;;;41.00;12.75;;;;;;;4.00;100.00;101454.41;6182113;23;20388;-92
2022/12/19 05:43:50;;;;;;;39.58;12.82;;;;;;;4.03;100.00;101454.81;6156223;23;20558;-91
2022/12/19 05:46:15;;;;;;;36.30;12.95;;;;;;;4.08;100.00;101444.44;6181615;23;20029;-92
2022/12/19 05:48:50;;;;;;;42.40;12.93;;;;;;;4.13;100.00;101451.78;6182365;23;20009;-90
2022/12/19 05:51:15;;;;;;;36.45;13.48;;;;;;;4.13;100.00;101449.13;6156261;23;20444;-90
2022/12/19 05:53:41;;;;;;;40.13;14.40;;;;;;;4.17;100.00;101450.38;6181928;23;20084;-90
2022/12/19 05:56:15;;;;;;;39.58;14.80;;;;;;;4.20;100.00;101451.84;6131082;23;20460;-91
2022/12/19 05:58:41;;;;;;;38.83;12.98;;;;;;;4.23;100.00;101459.38;6181924;23;20004;-90
2022/12/19 06:01:10;;;;;;;35.20;13.77;;;;;;;4.31;100.00;101450.41;6181498;23;20005;-90
2022/12/19 06:03:35;;;;;;;34.30;12.18;;;;;;;4.32;100.00;101458.19;6182168;23;20437;-90
2022/12/19 06:06:06;;;;;;;32.07;12.83;;;;;;;4.36;100.00;101454.13;6182689;23;20016;-89
2022/12/19 06:08:32;;;;;;;28.23;10.23;;;;;;;4.38;100.00;101452.06;6182946;23;20080;-90
2022/12/19 06:10:59;;;;;;;30.02;11.27;;;;;;;4.40;100.00;101459.84;6182419;23;20005;-90
2022/12/19 06:13:25;;;;;;;36.45;12.73;;;;;;;4.39;100.00;101448.38;6183017;23;20013;-90
2022/12/19 06:16:12;;;;;;;28.15;10.75;;;;;;;4.38;100.00;101449.41;6182627;23;20046;-90
2022/12/19 06:18:38;;;;;;;33.47;12.05;;;;;;;4.39;100.00;101448.38;6181871;23;20015;-89
2022/12/19 06:21:06;;;;;;;40.03;15.53;;;;;;;4.48;100.00;101456.97;6181876;23;20005;-90
2022/12/19 06:23:34;;;;;;;32.47;13.13;;;;;;;4.51;100.00;101445.97;6182182;23;20005;-89
2022/12/19 06:26:03;;;;;;;36.55;13.85;;;;;;;4.57;100.00;101444.34;6181641;23;20001;-89
2022/12/19 06:28:30;;;;;;;31.40;13.20;;;;;;;4.57;100.00;101449.66;6182725;23;20004;-89
2022/12/19 06:31:00;;;;;;;28.85;10.82;;;;;;;4.59;100.00;101452.13;6182822;23;20010;-89
2022/12/19 06:33:27;;;;;;;29.75;11.98;;;;;;;4.62;100.00;101452.53;6184126;23;20015;-89
2022/12/19 06:36:01;;;;;;;27.63;11.93;;;;;;;4.67;100.00;101459.88;6183409;23;20009;-89
2022/12/19 06:38:28;;;;;;;34.53;14.20;;;;;;;4.74;100.00;101451.94;6183903;23;20020;-88
2022/12/19 06:43:40;;;;;;;25.10;11.13;;;;;;;4.76;100.00;101465.81;6184225;23;20028;-89
2022/12/19 06:46:05;;;;;;;25.33;11.60;;;;;;;4.77;100.00;101464.78;6184172;23;20008;-89
2022/12/19 06:48:31;;;;;;;27.85;11.65;;;;;;;4.73;100.00;101456.41;6183622;23;20005;-89
2022/12/19 06:50:56;;;;;;;23.53;10.33;;;;;;;4.73;100.00;101468.88;6183099;23;20483;-90
2022/12/19 06:53:22;;;;;;;31.03;12.60;;;;;;;4.77;100.00;101465.63;6183727;23;20008;-89
2022/12/19 06:55:50;;;;;;;24.63;10.13;;;;;;;4.81;100.00;101471.31;6183087;23;20005;-90
2022/12/19 07:01:42;;;;;;;30.90;13.48;;;;;;;4.83;100.00;101463.97;6182742;23;20452;-89
2022/12/19 07:04:29;;;;;;;23.00;10.60;;;;;;;4.83;100.00;101463.97;6182632;23;20013;-89
2022/12/19 07:06:56;;;;;;;26.73;12.48;;;;;;;4.77;100.00;101459.47;6157458;23;20011;-90
2022/12/19 07:16:36;;;;;;;23.85;9.93;;;;;;;4.78;100.00;101453.13;6183215;23;20179;-88
2022/12/19 07:19:08;;;;;;;26.30;10.27;;;;;;;4.77;100.00;101438.22;6104273;23;20017;-89
2022/12/19 07:25:19;;;;;;;26.35;10.43;;;;;;;4.88;100.00;101453.56;6182140;22;20028;-89
2022/12/19 07:28:58;;;;;;;;;;;;;;;;;;;;;
2022/12/19 07:31:26;;;;;;;21.58;9.90;;;;;;;4.97;100.00;101478.09;6179068;23;20024;-89
2022/12/19 07:37:28;;;;;;;22.08;9.85;;;;;;;4.99;100.00;101471.53;6120362;23;20049;-88
2022/12/19 07:39:53;;;;;;;23.60;10.23;;;;;;;4.93;100.00;101463.56;6178645;23;20635;-89
2022/12/19 07:42:34;;;;;;;26.53;10.60;;;;;;;4.92;100.00;101462.78;6183330;23;20004;-89
2022/12/19 07:53:58;;;;;;;20.60;9.47;;;;;;;4.97;100.00;101468.25;6168448;22;20386;-89
2022/12/19 07:56:33;;;;;;;19.48;9.40;;;;;;;4.97;100.00;101460.28;6182851;23;20024;-89
2022/12/19 07:59:04;;;;;;;18.83;8.77;;;;;;;5.04;100.00;101491.38;6155725;23;20009;-89
2022/12/19 08:01:30;;;;;;;19.88;10.32;;;;;;;5.00;100.00;101486.47;6182702;23;20060;-89
2022/12/19 08:03:58;;;;;;;16.03;8.10;;;;;;;5.05;100.00;101496.47;6182815;23;20008;-89
2022/12/19 08:06:33;;;;;;;19.75;9.02;;;;;;;5.18;100.00;101492.19;6183488;23;20307;-89
2022/12/19 08:08:58;;;;;;;18.08;8.68;;;;;;;5.06;100.00;101489.31;6182570;23;20040;-89
2022/12/19 08:11:28;;;;;;;19.70;8.90;;;;;;;5.14;100.00;101497.06;6182118;23;20001;-89
2022/12/19 08:13:55;;;;;;;18.08;8.10;;;;;;;5.12;100.00;101491.16;6182843;23;20012;-89
2022/12/19 08:16:22;;;;;;;16.95;8.38;;;;;;;5.23;100.00;101506.50;6182871;23;20046;-89
2022/12/19 08:18:47;;;;;;;17.67;8.73;;;;;;;5.21;100.00;101505.03;6156032;23;20335;-89
2022/12/19 08:21:16;;;;;;;18.00;9.27;;;;;;;5.22;100.00;101502.19;6182511;23;20053;-89
2022/12/19 08:23:44;;;;;;;15.52;8.45;;;;;;;5.27;100.00;101502.41;6182804;23;20039;-88
2022/12/19 08:26:15;;;;;;;14.77;8.55;;;;;;;5.27;100.00;101497.09;6155901;23;20084;-89
2022/12/19 08:28:42;;;;;;;14.73;8.15;;;;;;;5.36;100.00;101510.16;6182212;23;20008;-88
2022/12/19 08:31:13;;;;;;;16.30;7.60;;;;;;;5.39;100.00;101499.13;6182004;23;20005;-89
2022/12/19 08:33:39;;;;;;;18.03;9.90;;;;;;;5.39;100.00;101504.44;6182585;23;20008;-89
2022/12/19 08:36:06;;;;;;;19.83;11.60;;;;;;;5.39;100.00;101493.78;6156842;23;20328;-89
2022/12/19 08:38:32;;;;;;;14.68;7.75;;;;;;;5.41;100.00;101497.06;6156188;23;20080;-89
2022/12/19 08:40:57;;;;;;;14.25;7.53;;;;;;;5.46;100.00;101502.59;6182002;23;20357;-89
2022/12/19 08:43:23;;;;;;;13.90;9.03;;;;;;;5.46;100.00;101513.22;6182900;23;20025;-88
2022/12/19 09:28:59;;;;;;;13.75;6.70;;;;;;;5.80;100.00;101498.00;6167688;22;20017;-89
2022/12/19 09:31:27;;;;;;;10.68;6.13;;;;;;;5.86;100.00;101499.81;6161835;23;20009;-90
2022/12/19 09:34:07;;;;;;;11.38;7.20;;;;;;;5.93;100.00;101499.00;6168033;23;20009;-89
2022/12/19 09:36:39;;;;;;;12.32;6.93;;;;;;;6.05;100.00;101524.78;6175278;23;20013;-88
2022/12/19 09:39:05;;;;;;;11.88;6.22;;;;;;;5.97;100.00;101509.00;6160627;23;20080;-89
2022/12/19 09:42:03;;;;;;;10.90;5.73;;;;;;;6.08;100.00;101517.41;6153702;23;20083;-88
2022/12/19 09:44:49;;;;;;;11.13;6.20;;;;;;;6.11;100.00;101511.66;6154619;23;20133;-89
2022/12/19 09:47:18;;;;;;;11.93;6.63;;;;;;;6.13;100.00;101521.06;6153711;23;20414;-89
2022/12/19 09:49:46;;;;;;;11.73;6.37;;;;;;;6.22;100.00;101519.78;6153005;23;20029;-89
2022/12/19 09:52:16;;;;;;;13.80;6.38;;;;;;;6.24;100.00;101510.75;6152700;23;20060;-89
2022/12/19 09:54:48;;;;;;;10.35;6.00;;;;;;;6.33;100.00;101520.16;6154032;23;20001;-90
2022/12/19 09:57:20;;;;;;;11.68;5.97;;;;;;;6.38;100.00;101522.16;6153407;23;20009;-89
2022/12/19 10:15:12;;;;;;;9.90;5.00;;;;;;;6.61;100.00;101530.44;6180281;22;20017;-89
2022/12/19 10:18:10;;;;;;;7.85;5.03;;;;;;;6.61;100.00;101522.47;6184148;23;20009;-89
2022/12/19 10:20:49;;;;;;;6.15;4.85;;;;;;;6.64;100.00;101530.03;6174390;23;20061;-89
2022/12/19 10:23:49;;;;;;;7.63;4.70;;;;;;;6.70;100.00;101524.84;6184290;23;20001;-89
2022/12/19 10:26:43;;;;;;;9.23;5.03;;;;;;;6.65;100.00;101520.19;6183857;23;20436;-89
2022/12/19 10:29:45;;;;;;;6.40;4.47;;;;;;;6.66;100.00;101522.63;6157794;23;20012;-89
2022/12/19 10:32:24;;;;;;;7.40;4.70;;;;;;;6.66;100.00;101529.81;6182418;23;20318;-89
2022/12/19 10:39:08;;;;;;;7.07;4.60;;;;;;;6.62;100.00;101550.72;6170620;23;20068;-90
2022/12/19 10:42:04;;;;;;;7.82;4.72;;;;;;;6.56;100.00;101532.13;6068012;23;20006;-90
2022/12/19 10:44:36;;;;;;;7.57;4.30;;;;;;;6.60;100.00;101534.16;6182963;23;20567;-90
2022/12/19 10:47:22;;;;;;;6.55;4.40;;;;;;;6.53;100.00;101514.72;6183797;23;20413;-90
2022/12/19 10:49:50;;;;;;;7.03;4.72;;;;;;;6.63;100.00;101527.56;6156387;23;20270;-90
2022/12/19 10:52:55;;;;;;;7.53;4.77;;;;;;;6.72;100.00;101544.09;6157242;23;20036;-90
2022/12/19 10:55:49;;;;;;;7.32;4.90;;;;;;;6.69;100.00;101534.72;6160039;23;20401;-89
2022/12/19 10:58:26;;;;;;;8.35;4.47;;;;;;;6.70;100.00;101533.69;6185874;23;20329;-90
2022/12/19 11:01:04;;;;;;;6.07;4.40;;;;;;;6.65;100.00;101525.50;6182688;23;20001;-90
2022/12/19 11:03:33;;;;;;;6.63;4.97;;;;;;;6.69;100.00;101529.38;6184084;23;20024;-89
2022/12/19 11:06:01;;;;;;;8.07;5.28;;;;;;;6.66;100.00;101535.13;6183689;23;20036;-90
2022/12/19 11:08:32;;;;;;;7.40;4.60;;;;;;;6.69;100.00;101529.38;6183979;23;20001;-90
2022/12/19 11:11:04;;;;;;;8.35;5.28;;;;;;;6.69;100.00;101521.38;6182640;23;20056;-90
2022/12/19 11:13:46;;;;;;;10.48;5.72;;;;;;;6.69;100.00;101520.56;6183096;23;20441;-90
2022/12/19 11:16:21;;;;;;;9.73;5.65;;;;;;;6.64;100.00;101513.22;6183138;23;20028;-90
2022/12/19 11:18:47;;;;;;;8.75;5.50;;;;;;;6.68;100.00;101519.75;6182918;23;20036;-89
2022/12/19 11:21:27;;;;;;;9.15;5.32;;;;;;;6.76;100.00;101503.50;6182859;23;20012;-89
2022/12/19 11:23:58;;;;;;;6.40;4.70;;;;;;;6.80;100.00;101499.38;6182590;23;20012;-90
2022/12/19 11:26:32;;;;;;;8.90;5.27;;;;;;;6.81;100.00;101500.22;6183822;23;20009;-90
2022/12/19 11:29:04;;;;;;;13.50;6.07;;;;;;;6.79;100.00;101492.41;6183272;23;20005;-90
2022/12/19 11:31:30;;;;;;;8.15;5.15;;;;;;;6.77;100.00;101489.16;6183070;23;20005;-90
2022/12/19 11:34:05;;;;;;;10.40;5.10;;;;;;;6.83;100.00;101495.50;6184760;23;20542;-90
2022/12/19 11:36:40;;;;;;;11.18;4.53;;;;;;;6.88;100.00;101492.16;6186465;23;20011;-89
2022/12/19 11:39:16;;;;;;;7.50;5.32;;;;;;;6.89;100.00;101475.94;6184851;23;20016;-91
2022/12/19 11:41:50;;;;;;;7.63;4.68;;;;;;;7.00;100.00;101486.97;6183078;23;20068;-90
2022/12/19 11:44:24;;;;;;;12.65;4.45;;;;;;;7.05;100.00;101487.94;6184953;23;20080;-90
2022/12/19 11:47:02;;;;;;;9.10;4.77;;;;;;;6.98;100.00;101484.50;6183848;23;20416;-89
2022/12/19 11:49:44;;;;;;;8.30;4.32;;;;;;;7.07;100.00;101491.19;6183533;23;20483;-89
2022/12/19 11:52:13;;;;;;;6.60;4.80;;;;;;;7.09;100.00;101482.97;6156359;23;20461;-89
2022/12/19 11:55:01;;;;;;;7.32;4.22;;;;;;;7.10;100.00;101472.13;6183033;23;20009;-90
2022/12/19 11:57:30;;;;;;;7.93;4.28;;;;;;;7.10;100.00;101455.28;6158626;23;20005;-90
2022/12/19 11:59:55;;;;;;;5.30;4.10;;;;;;;7.18;100.00;101483.50;6182375;23;20031;-90
2022/12/19 12:02:46;;;;;;;8.40;4.60;;;;;;;7.26;100.00;101478.72;6183344;23;20497;-90
2022/12/19 12:05:33;;;;;;;9.05;4.57;;;;;;;7.38;100.00;101470.00;6183088;23;20016;-89
2022/12/19 12:08:32;;;;;;;5.47;3.45;;;;;;;7.48;100.00;101464.97;6156041;23;20009;-90
2022/12/19 12:11:12;;;;;;;5.68;3.58;;;;;;;7.58;100.00;101461.78;6181899;23;20008;-90
2022/12/19 12:13:59;;;;;;;5.57;3.45;;;;;;;7.68;100.00;101461.28;6182816;23;20009;-89
2022/12/19 12:17:09;;;;;;;5.63;3.53;;;;;;;7.72;100.00;101457.13;6182977;23;20009;-90
2022/12/19 12:19:38;;;;;;;6.18;3.38;;;;;;;7.75;100.00;101461.19;6157611;23;20338;-88
2022/12/19 12:22:21;;;;;;;5.50;3.25;;;;;;;7.75;100.00;101463.88;6184883;23;20005;-89
2022/12/19 12:24:49;;;;;;;5.07;3.30;;;;;;;7.75;100.00;101455.88;6182966;23;20005;-90
2022/12/19 12:27:37;;;;;;;7.40;3.50;;;;;;;7.77;100.00;101443.13;6183056;23;20101;-90
2022/12/19 12:30:13;;;;;;;5.22;3.08;;;;;;;7.87;100.00;101446.06;6182586;23;20152;-90
2022/12/19 12:32:49;;;;;;;3.97;3.00;;;;;;;8.00;100.00;101448.59;6182847;23;20012;-90
2022/12/19 12:35:17;;;;;;;4.80;3.00;;;;;;;8.11;100.00;101447.00;6183165;23;20251;-90
2022/12/19 12:37:55;;;;;;;6.97;3.35;;;;;;;8.15;100.00;101447.38;6182210;23;20000;-90
2022/12/19 12:40:54;;;;;;;;;;;;;;;;;;;;;
2022/12/19 12:43:46;;;;;;;5.15;2.97;;;;;;;8.16;100.00;101449.00;6176806;23;20396;-89
2022/12/19 12:46:21;;;;;;;5.25;2.97;;;;;;;8.12;100.00;101439.81;6155939;23;20009;-89
2022/12/19 12:53:02;;;;;;;5.75;3.20;;;;;;;8.25;100.00;101441.47;6092509;23;20010;-89
2022/12/19 12:55:44;;;;;;;;;;;;;;;;;;;;;
2022/12/19 12:58:47;;;;;;;4.80;2.93;;;;;;;8.36;100.00;101447.91;6074499;23;20093;-90
2022/12/19 13:01:35;;;;;;;4.37;3.17;;;;;;;8.39;100.00;101448.25;6090382;23;20242;-90
2022/12/19 13:04:11;;;;;;;3.83;2.67;;;;;;;8.42;100.00;101438.97;6179039;23;20017;-90
2022/12/19 13:06:40;;;;;;;4.75;2.60;;;;;;;8.43;100.00;101435.25;6182210;23;20012;-89
2022/12/19 13:09:08;;;;;;;5.20;2.85;;;;;;;8.44;100.00;101426.19;6156140;23;20322;-89
2022/12/19 13:14:43;;;;;;;5.50;2.85;;;;;;;8.56;100.00;101415.56;6182422;23;20028;-89
2022/12/19 13:17:11;;;;;;;7.57;3.10;;;;;;;8.61;100.00;101402.34;6168411;23;20448;-89
2022/12/19 13:19:40;;;;;;;4.90;3.00;;;;;;;8.59;100.00;101399.88;6183975;23;20247;-89
2022/12/19 13:22:17;;;;;;;4.35;2.55;;;;;;;8.60;100.00;101393.50;6183781;23;20005;-90
2022/12/19 13:24:49;;;;;;;6.43;2.78;;;;;;;8.49;100.00;101380.97;6156676;23;20008;-89